sensor_id;sensor_type;location;lat;lon;timestamp;P1;durP1;ratioP1;P2;durP2;ratioP2
23624;SDS011;11989;47.872;12.014;2022-07-22T03:57:54;17.20;;;14.30;;
23624;SDS011;11989;47.872;12.014;2022-07-22T04:00:20;16.85;;;14.95;;
23624;SDS011;11989;47.872;12.014;2022-07-22T04:02:46;17.13;;;15.30;;
23624;SDS011;11989;47.872;12.014;2022-07-22T04:05:12;18.02;;;16.00;;
23624;SDS011;11989;47.872;12.014;2022-07-22T04:07:38;20.25;;;18.05;;
23624;SDS011;11989;47.872;12.014;2022-07-22T04:10:04;23.98;;;19.70;;
23624;SDS011;11989;47.872;12.014;2022-07-22T04:12:34;21.52;;;18.50;;
23624;SDS011;11989;47.872;12.014;2022-07-22T04:15:01;18.85;;;16.85;;
23624;SDS011;11989;47.872;12.014;2022-07-22T04:17:27;19.00;;;16.60;;
23624;SDS011;11989;47.872;12.014;2022-07-22T04:19:53;20.40;;;15.90;;
23624;SDS011;11989;47.872;12.014;2022-07-22T04:22:19;16.85;;;15.02;;
23624;SDS011;11989;47.872;12.014;2022-07-22T04:24:45;17.83;;;15.35;;
23624;SDS011;11989;47.872;12.014;2022-07-22T04:27:11;17.45;;;15.32;;
23624;SDS011;11989;47.872;12.014;2022-07-22T04:29:37;16.52;;;14.82;;
23624;SDS011;11989;47.872;12.014;2022-07-22T04:32:03;17.92;;;14.13;;
23624;SDS011;11989;47.872;12.014;2022-07-22T04:34:29;18.65;;;15.93;;
23624;SDS011;11989;47.872;12.014;2022-07-22T04:36:56;18.08;;;15.90;;
23624;SDS011;11989;47.872;12.014;2022-07-22T04:39:22;17.85;;;16.05;;
23624;SDS011;11989;47.872;12.014;2022-07-22T04:41:48;16.92;;;15.02;;
23624;SDS011;11989;47.872;12.014;2022-07-22T04:44:14;17.92;;;15.85;;
23624;SDS011;11989;47.872;12.014;2022-07-22T04:46:40;20.00;;;17.90;;
23624;SDS011;11989;47.872;12.014;2022-07-22T04:49:06;18.38;;;16.48;;
23624;SDS011;11989;47.872;12.014;2022-07-22T04:51:32;19.02;;;17.10;;
23624;SDS011;11989;47.872;12.014;2022-07-22T04:53:58;21.35;;;17.42;;
23624;SDS011;11989;47.872;12.014;2022-07-22T04:56:24;20.83;;;18.52;;
23624;SDS011;11989;47.872;12.014;2022-07-22T04:58:50;21.17;;;18.98;;
23624;SDS011;11989;47.872;12.014;2022-07-22T05:01:16;21.13;;;18.88;;
23624;SDS011;11989;47.872;12.014;2022-07-22T05:03:42;22.70;;;20.38;;
23624;SDS011;11989;47.872;12.014;2022-07-22T05:06:09;24.02;;;20.92;;
23624;SDS011;11989;47.872;12.014;2022-07-22T05:08:35;21.60;;;18.48;;
23624;SDS011;11989;47.872;12.014;2022-07-22T05:11:02;21.67;;;18.63;;
23624;SDS011;11989;47.872;12.014;2022-07-22T05:13:28;24.08;;;20.05;;
23624;SDS011;11989;47.872;12.014;2022-07-22T05:15:54;26.25;;;21.45;;
23624;SDS011;11989;47.872;12.014;2022-07-22T05:18:20;24.77;;;21.35;;
23624;SDS011;11989;47.872;12.014;2022-07-22T05:20:46;24.17;;;19.98;;
23624;SDS011;11989;47.872;12.014;2022-07-22T05:23:12;27.58;;;20.25;;
23624;SDS011;11989;47.872;12.014;2022-07-22T05:25:38;25.02;;;20.77;;
23624;SDS011;11989;47.872;12.014;2022-07-22T05:28:04;21.27;;;18.83;;
23624;SDS011;11989;47.872;12.014;2022-07-22T05:30:30;21.08;;;17.10;;
23624;SDS011;11989;47.872;12.014;2022-07-22T05:32:57;19.25;;;17.35;;
23624;SDS011;11989;47.872;12.014;2022-07-22T05:35:23;18.67;;;16.45;;
23624;SDS011;11989;47.872;12.014;2022-07-22T05:37:49;19.55;;;17.45;;
23624;SDS011;11989;47.872;12.014;2022-07-22T05:40:15;21.50;;;18.55;;
23624;SDS011;11989;47.872;12.014;2022-07-22T05:42:41;19.85;;;17.55;;
23624;SDS011;11989;47.872;12.014;2022-07-22T05:45:07;19.90;;;17.80;;
23624;SDS011;11989;47.872;12.014;2022-07-22T05:47:33;19.35;;;16.92;;
23624;SDS011;11989;47.872;12.014;2022-07-22T05:49:59;22.88;;;18.27;;
23624;SDS011;11989;47.872;12.014;2022-07-22T05:52:25;22.35;;;17.20;;
23624;SDS011;11989;47.872;12.014;2022-07-22T05:54:51;19.73;;;16.63;;
23624;SDS011;11989;47.872;12.014;2022-07-22T05:57:18;24.40;;;17.60;;
23624;SDS011;11989;47.872;12.014;2022-07-22T05:59:44;19.58;;;15.38;;
23624;SDS011;11989;47.872;12.014;2022-07-22T06:02:10;23.02;;;17.38;;
23624;SDS011;11989;47.872;12.014;2022-07-22T06:04:36;19.58;;;15.63;;
23624;SDS011;11989;47.872;12.014;2022-07-22T06:07:02;20.98;;;15.40;;
23624;SDS011;11989;47.872;12.014;2022-07-22T06:09:31;18.45;;;14.80;;
23624;SDS011;11989;47.872;12.014;2022-07-22T06:11:57;18.58;;;15.00;;
23624;SDS011;11989;47.872;12.014;2022-07-22T06:14:23;19.65;;;16.30;;
23624;SDS011;11989;47.872;12.014;2022-07-22T06:16:49;20.05;;;16.73;;
23624;SDS011;11989;47.872;12.014;2022-07-22T06:19:15;18.38;;;15.70;;
23624;SDS011;11989;47.872;12.014;2022-07-22T06:21:41;17.85;;;15.38;;
23624;SDS011;11989;47.872;12.014;2022-07-22T06:24:07;17.90;;;14.98;;
23624;SDS011;11989;47.872;12.014;2022-07-22T06:26:34;16.75;;;13.43;;
23624;SDS011;11989;47.872;12.014;2022-07-22T06:29:00;16.67;;;13.50;;
23624;SDS011;11989;47.872;12.014;2022-07-22T06:31:26;16.95;;;14.10;;
23624;SDS011;11989;47.872;12.014;2022-07-22T06:33:52;16.27;;;14.55;;
23624;SDS011;11989;47.872;12.014;2022-07-22T06:36:18;16.83;;;14.50;;
23624;SDS011;11989;47.872;12.014;2022-07-22T06:38:44;16.20;;;14.50;;
23624;SDS011;11989;47.872;12.014;2022-07-22T06:41:10;16.90;;;14.43;;
23624;SDS011;11989;47.872;12.014;2022-07-22T06:43:38;19.08;;;15.10;;
23624;SDS011;11989;47.872;12.014;2022-07-22T06:46:05;15.88;;;13.93;;
23624;SDS011;11989;47.872;12.014;2022-07-22T06:48:31;15.15;;;13.55;;
23624;SDS011;11989;47.872;12.014;2022-07-22T06:50:57;17.70;;;15.23;;
23624;SDS011;11989;47.872;12.014;2022-07-22T06:53:23;18.58;;;14.27;;
23624;SDS011;11989;47.872;12.014;2022-07-22T06:55:49;17.95;;;14.57;;
23624;SDS011;11989;47.872;12.014;2022-07-22T06:58:15;17.95;;;14.63;;
23624;SDS011;11989;47.872;12.014;2022-07-22T07:00:41;15.90;;;12.85;;
23624;SDS011;11989;47.872;12.014;2022-07-22T07:03:07;22.38;;;15.68;;
23624;SDS011;11989;47.872;12.014;2022-07-22T07:05:33;17.73;;;15.45;;
23624;SDS011;11989;47.872;12.014;2022-07-22T07:08:00;20.90;;;15.73;;
23624;SDS011;11989;47.872;12.014;2022-07-22T07:10:26;20.42;;;15.98;;
23624;SDS011;11989;47.872;12.014;2022-07-22T07:12:55;18.20;;;15.65;;
23624;SDS011;11989;47.872;12.014;2022-07-22T07:15:21;18.33;;;16.08;;
23624;SDS011;11989;47.872;12.014;2022-07-22T07:17:47;18.55;;;15.45;;
23624;SDS011;11989;47.872;12.014;2022-07-22T07:20:13;18.98;;;15.30;;
23624;SDS011;11989;47.872;12.014;2022-07-22T07:22:39;17.70;;;15.82;;
23624;SDS011;11989;47.872;12.014;2022-07-22T07:25:06;16.35;;;13.65;;
23624;SDS011;11989;47.872;12.014;2022-07-22T07:27:32;25.83;;;15.88;;
23624;SDS011;11989;47.872;12.014;2022-07-22T07:29:58;18.00;;;15.10;;
23624;SDS011;11989;47.872;12.014;2022-07-22T07:32:25;17.63;;;14.60;;
23624;SDS011;11989;47.872;12.014;2022-07-22T07:34:51;17.92;;;14.90;;
23624;SDS011;11989;47.872;12.014;2022-07-22T07:37:17;16.83;;;15.05;;
23624;SDS011;11989;47.872;12.014;2022-07-22T07:39:43;23.50;;;14.95;;
23624;SDS011;11989;47.872;12.014;2022-07-22T07:42:09;17.33;;;14.60;;
23624;SDS011;11989;47.872;12.014;2022-07-22T07:44:35;15.55;;;13.82;;
23624;SDS011;11989;47.872;12.014;2022-07-22T07:47:01;17.95;;;14.38;;
23624;SDS011;11989;47.872;12.014;2022-07-22T07:49:27;17.15;;;14.65;;
23624;SDS011;11989;47.872;12.014;2022-07-22T07:51:53;18.95;;;15.02;;
23624;SDS011;11989;47.872;12.014;2022-07-22T07:54:20;16.42;;;13.57;;
23624;SDS011;11989;47.872;12.014;2022-07-22T07:56:46;16.83;;;13.93;;
23624;SDS011;11989;47.872;12.014;2022-07-22T07:59:13;16.27;;;13.88;;
23624;SDS011;11989;47.872;12.014;2022-07-22T08:01:39;16.25;;;14.45;;
23624;SDS011;11989;47.872;12.014;2022-07-22T08:04:06;15.65;;;13.70;;
23624;SDS011;11989;47.872;12.014;2022-07-22T08:06:34;16.17;;;14.40;;
23624;SDS011;11989;47.872;12.014;2022-07-22T08:09:00;13.93;;;12.40;;
23624;SDS011;11989;47.872;12.014;2022-07-22T08:11:29;15.82;;;12.63;;
23624;SDS011;11989;47.872;12.014;2022-07-22T08:13:59;18.50;;;14.60;;
23624;SDS011;11989;47.872;12.014;2022-07-22T08:16:27;15.88;;;13.82;;
23624;SDS011;11989;47.872;12.014;2022-07-22T08:19:07;20.10;;;14.10;;
23624;SDS011;11989;47.872;12.014;2022-07-22T08:21:34;17.30;;;12.93;;
23624;SDS011;11989;47.872;12.014;2022-07-22T08:24:04;15.82;;;12.20;;
23624;SDS011;11989;47.872;12.014;2022-07-22T08:26:30;13.48;;;10.90;;
23624;SDS011;11989;47.872;12.014;2022-07-22T08:28:59;14.20;;;10.60;;
23624;SDS011;11989;47.872;12.014;2022-07-22T08:31:28;12.75;;;10.57;;
23624;SDS011;11989;47.872;12.014;2022-07-22T08:34:00;15.60;;;12.60;;
